Date,TemperatureHighF,TemperatureAvgF,TemperatureLowF,DewpointHighF,DewpointAvgF,DewpointLowF,HumidityHigh,HumidityAvg,HumidityLow,PressureMaxIn,PressureMinIn,WindSpeedMaxMPH,WindSpeedAvgMPH,GustSpeedMaxMPH,PrecipitationSumIn
2013-3-1,66.4,56.8,50.9,51.9,44.4,33.7,92,66,34,30.15,29.98,13,5,15,0.00
2013-3-2,61.7,53.3,44.2,43.0,36.4,26.1,80,54,29,30.28,30.04,21,8,24,0.01
2013-3-3,58.5,46.7,34.5,39.1,33.5,30.1,88,62,38,30.49,27.30,17,7,28,0.00
2013-3-4,65.3,49.8,0.0,44.5,33.6,21.9,94,61,21,30.66,29.89,10,3,14,0.00
2013-3-5,78.8,62.0,45.0,54.7,47.4,38.8,99,64,26,30.02,29.66,12,6,17,0.00
2013-3-6,71.1,61.0,46.6,61.4,40.4,18.9,97,56,14,29.94,29.62,22,11,26,0.52
2013-3-7,70.0,53.9,42.1,49.2,42.4,34.1,98,67,43,30.20,29.93,8,4,11,0.00
2013-3-8,74.3,57.3,42.3,53.3,47.6,40.7,99,74,34,30.15,30.00,9,3,13,0.01
2013-3-9,73.8,60.7,46.2,56.6,51.3,45.4,99,74,46,30.20,29.81,9,3,13,0.00
2013-3-10,75.4,64.5,53.1,61.0,55.8,52.3,99,75,48,29.96,29.76,16,5,20,0.00
2013-3-11,77.0,66.9,55.8,62.9,58.4,53.9,99,76,50,29.83,29.57,15,6,21,0.00
2013-3-12,74.3,68.1,59.2,69.7,64.4,57.8,99,88,80,29.66,29.48,17,8,22,0.20
2013-3-13,74.7,56.8,50.4,58.1,50.7,41.0,99,82,30,29.82,29.65,8,3,9,0.01
2013-3-14,67.8,58.3,48.2,45.0,40.4,33.7,75,53,36,30.02,29.86,11,6,15,0.00
2013-3-15,70.3,59.7,39.9,49.0,43.7,37.0,99,60,32,30.10,29.87,8,4,13,0.01
2013-3-16,79.0,62.0,45.7,55.9,49.4,42.3,99,68,29,33.01,29.76,11,5,19,0.00
2013-3-17,79.7,65.6,50.4,60.8,55.3,49.6,99,72,44,29.94,29.64,14,6,17,0.00
2013-3-18,79.2,71.6,63.3,67.7,63.3,59.3,95,76,60,29.70,29.45,15,7,23,0.02
2013-3-19,84.7,71.6,62.4,68.9,64.5,60.6,99,81,48,29.66,29.50,8,3,11,0.00
2013-3-20,78.1,70.4,61.7,69.9,64.9,57.3,99,84,64,29.62,29.32,15,5,18,0.00
2013-3-21,74.3,62.0,51.1,58.4,44.7,22.3,99,62,15,29.69,29.45,10,4,17,0.00
2013-3-22,77.2,60.7,44.2,64.6,53.1,43.7,99,80,38,29.83,29.55,12,4,14,0.50
2013-3-23,87.6,74.7,64.6,72.6,68.0,63.7,99,82,46,29.92,29.46,20,7,27,0.01
2013-3-24,86.7,72.6,65.7,72.7,68.8,63.4,99,89,54,29.92,29.62,28,10,34,1.33
2013-3-25,75.6,67.6,54.0,69.4,49.8,25.8,99,62,17,30.08,29.75,19,8,22,0.01
2013-3-26,63.5,53.6,43.9,42.2,32.3,22.1,70,47,21,30.40,30.08,16,7,22,0.00
2013-3-27,66.7,50.1,39.6,43.8,36.1,27.4,85,63,25,30.57,30.39,12,4,14,0.00
2013-3-28,70.0,61.9,48.0,47.9,41.6,28.8,89,51,24,30.55,30.37,10,4,14,0.00
2013-3-29,73.2,59.6,44.6,52.3,45.7,34.9,99,66,29,30.57,30.34,9,3,14,0.00
2013-3-30,75.6,62.5,48.2,55.3,52.1,47.9,99,72,44,30.49,30.25,14,5,19,0.00
2013-3-31,77.2,66.1,56.3,65.7,58.1,53.5,95,76,49,30.37,29.99,14,6,17,0.00